sensor_id;sensor_type;location;lat;lon;timestamp;pressure;altitude;pressure_sealevel;temperature;humidity
788;BME280;16074;42.708;23.312;2023-02-22T00:02:04;140568.31;;;9.36;50.70
788;BME280;16074;42.708;23.312;2023-02-22T00:04:41;140550.28;;;9.28;50.95
788;BME280;16074;42.708;23.312;2023-02-22T00:07:09;140546.72;;;9.27;50.86
788;BME280;16074;42.708;23.312;2023-02-22T00:09:37;140522.66;;;9.17;51.53
788;BME280;16074;42.708;23.312;2023-02-22T00:12:06;140499.78;;;9.07;51.59
788;BME280;16074;42.708;23.312;2023-02-22T00:14:35;140457.69;;;8.90;52.06
788;BME280;16074;42.708;23.312;2023-02-22T00:17:04;140484.16;;;9.01;51.57
788;BME280;16074;42.708;23.312;2023-02-22T00:19:32;140492.59;;;9.04;51.44
788;BME280;16074;42.708;23.312;2023-02-22T00:22:02;140491.38;;;9.04;51.62
788;BME280;16074;42.708;23.312;2023-02-22T00:24:31;140490.19;;;9.03;51.62
788;BME280;16074;42.708;23.312;2023-02-22T00:27:02;140481.75;;;9.00;52.04
788;BME280;16074;42.708;23.312;2023-02-22T00:29:30;140456.53;;;8.89;51.68
788;BME280;16074;42.708;23.312;2023-02-22T00:32:00;140476.94;;;8.98;51.97
788;BME280;16074;42.708;23.312;2023-02-22T00:34:29;140461.34;;;8.91;52.15
788;BME280;16074;42.708;23.312;2023-02-22T00:36:57;140484.16;;;9.01;52.13
788;BME280;16074;42.708;23.312;2023-02-22T00:39:30;140490.19;;;9.03;51.94
788;BME280;16074;42.708;23.312;2023-02-22T00:41:58;140466.16;;;8.93;52.00
788;BME280;16074;42.708;23.312;2023-02-22T00:44:28;140469.72;;;8.95;52.18
788;BME280;16074;42.708;23.312;2023-02-22T00:46:56;140464.91;;;8.93;52.20
788;BME280;16074;42.708;23.312;2023-02-22T00:49:25;140485.38;;;9.01;52.25
788;BME280;16074;42.708;23.312;2023-02-22T00:51:53;140464.91;;;8.93;52.70
788;BME280;16074;42.708;23.312;2023-02-22T00:54:21;140487.78;;;9.02;52.90
788;BME280;16074;42.708;23.312;2023-02-22T00:56:51;140464.91;;;8.93;52.72
788;BME280;16074;42.708;23.312;2023-02-22T00:59:20;140466.16;;;8.93;52.63
788;BME280;16074;42.708;23.312;2023-02-22T01:01:49;140475.75;;;8.97;52.83
788;BME280;16074;42.708;23.312;2023-02-22T01:04:18;140480.56;;;8.99;52.72
788;BME280;16074;42.708;23.312;2023-02-22T01:06:46;140416.88;;;8.73;53.52
788;BME280;16074;42.708;23.312;2023-02-22T01:09:15;140390.41;;;8.62;53.78
788;BME280;16074;42.708;23.312;2023-02-22T01:11:43;140378.38;;;8.57;54.00
788;BME280;16074;42.708;23.312;2023-02-22T01:14:14;140397.63;;;8.65;54.06
788;BME280;16074;42.708;23.312;2023-02-22T01:16:44;140395.22;;;8.64;54.29
788;BME280;16074;42.708;23.312;2023-02-22T01:19:12;140433.66;;;8.80;53.58
788;BME280;16074;42.708;23.312;2023-02-22T01:21:41;140455.28;;;8.89;54.84
788;BME280;16074;42.708;23.312;2023-02-22T01:24:09;140464.91;;;8.93;54.78
788;BME280;16074;42.708;23.312;2023-02-22T01:26:42;140484.16;;;9.01;54.52
788;BME280;16074;42.708;23.312;2023-02-22T01:29:14;140473.34;;;8.96;54.64
788;BME280;16074;42.708;23.312;2023-02-22T01:31:50;140473.34;;;8.96;54.40
788;BME280;16074;42.708;23.312;2023-02-22T01:34:18;140470.94;;;8.95;54.38
788;BME280;16074;42.708;23.312;2023-02-22T01:36:47;140456.53;;;8.89;54.40
788;BME280;16074;42.708;23.312;2023-02-22T01:39:16;140450.50;;;8.87;54.52
788;BME280;16074;42.708;23.312;2023-02-22T01:41:45;140449.31;;;8.86;54.13
788;BME280;16074;42.708;23.312;2023-02-22T01:44:24;140443.28;;;8.84;54.97
788;BME280;16074;42.708;23.312;2023-02-22T01:46:53;140406.03;;;8.68;55.03
788;BME280;16074;42.708;23.312;2023-02-22T01:49:23;140390.41;;;8.62;54.95
788;BME280;16074;42.708;23.312;2023-02-22T01:51:55;140367.56;;;8.52;55.30
788;BME280;16074;42.708;23.312;2023-02-22T01:54:27;140354.34;;;8.47;55.49
788;BME280;16074;42.708;23.312;2023-02-22T01:56:59;140333.94;;;8.38;55.88
788;BME280;16074;42.708;23.312;2023-02-22T01:59:37;140319.50;;;8.32;55.45
788;BME280;16074;42.708;23.312;2023-02-22T02:02:06;140324.31;;;8.34;56.18
788;BME280;16074;42.708;23.312;2023-02-22T02:04:35;140305.09;;;8.27;56.40
788;BME280;16074;42.708;23.312;2023-02-22T02:07:06;140309.91;;;8.28;56.63
788;BME280;16074;42.708;23.312;2023-02-22T02:09:39;140272.63;;;8.13;56.54
788;BME280;16074;42.708;23.312;2023-02-22T02:12:11;140256.97;;;8.07;56.84
788;BME280;16074;42.708;23.312;2023-02-22T02:14:42;140213.78;;;7.89;56.90
788;BME280;16074;42.708;23.312;2023-02-22T02:17:12;140213.78;;;7.89;56.79
788;BME280;16074;42.708;23.312;2023-02-22T02:19:48;140210.16;;;7.87;57.75
788;BME280;16074;42.708;23.312;2023-02-22T02:22:37;140188.50;;;7.78;58.11
788;BME280;16074;42.708;23.312;2023-02-22T02:25:41;140195.72;;;7.81;58.29
788;BME280;16074;42.708;23.312;2023-02-22T02:28:42;140182.53;;;7.76;58.45
788;BME280;16074;42.708;23.312;2023-02-22T02:31:38;140176.50;;;7.73;58.23
788;BME280;16074;42.708;23.312;2023-02-22T02:34:17;140174.09;;;7.72;58.50
788;BME280;16074;42.708;23.312;2023-02-22T02:36:57;140168.13;;;7.70;58.52
788;BME280;16074;42.708;23.312;2023-02-22T02:39:34;140159.69;;;7.66;58.82
788;BME280;16074;42.708;23.312;2023-02-22T02:42:06;140150.13;;;7.62;58.81
788;BME280;16074;42.708;23.312;2023-02-22T02:44:40;140134.50;;;7.56;58.97
788;BME280;16074;42.708;23.312;2023-02-22T02:47:14;140118.91;;;7.49;59.21
788;BME280;16074;42.708;23.312;2023-02-22T02:49:53;140140.53;;;7.58;58.66
788;BME280;16074;42.708;23.312;2023-02-22T02:52:24;140121.31;;;7.50;59.24
788;BME280;16074;42.708;23.312;2023-02-22T02:54:54;140117.69;;;7.49;59.19
788;BME280;16074;42.708;23.312;2023-02-22T02:57:23;140120.06;;;7.50;58.65
788;BME280;16074;42.708;23.312;2023-02-22T02:59:51;140115.28;;;7.48;59.26
788;BME280;16074;42.708;23.312;2023-02-22T03:02:35;140117.69;;;7.49;59.64
788;BME280;16074;42.708;23.312;2023-02-22T03:05:18;140106.88;;;7.44;60.54
788;BME280;16074;42.708;23.312;2023-02-22T03:07:57;140115.28;;;7.48;59.94
788;BME280;16074;42.708;23.312;2023-02-22T03:10:44;140103.25;;;7.43;60.60
788;BME280;16074;42.708;23.312;2023-02-22T03:13:23;140074.50;;;7.31;60.36
788;BME280;16074;42.708;23.312;2023-02-22T03:16:04;140044.44;;;7.18;61.12
788;BME280;16074;42.708;23.312;2023-02-22T03:18:43;140043.28;;;7.18;61.43
788;BME280;16074;42.708;23.312;2023-02-22T03:21:22;140027.66;;;7.11;61.92
788;BME280;16074;42.708;23.312;2023-02-22T03:23:59;140019.25;;;7.08;61.68
788;BME280;16074;42.708;23.312;2023-02-22T03:26:36;139997.66;;;6.99;61.90
788;BME280;16074;42.708;23.312;2023-02-22T03:29:08;139935.28;;;6.73;63.36
788;BME280;16074;42.708;23.312;2023-02-22T03:31:43;139968.84;;;6.87;63.44
788;BME280;16074;42.708;23.312;2023-02-22T03:34:19;139985.66;;;6.94;63.36
788;BME280;16074;42.708;23.312;2023-02-22T03:36:53;140014.47;;;7.06;63.59
788;BME280;16074;42.708;23.312;2023-02-22T03:39:25;140045.69;;;7.19;63.69
788;BME280;16074;42.708;23.312;2023-02-22T03:41:59;140046.84;;;7.19;63.60
788;BME280;16074;42.708;23.312;2023-02-22T03:44:31;140055.28;;;7.23;63.16
788;BME280;16074;42.708;23.312;2023-02-22T03:47:07;140054.06;;;7.22;63.76
788;BME280;16074;42.708;23.312;2023-02-22T03:49:39;140074.50;;;7.31;63.75
788;BME280;16074;42.708;23.312;2023-02-22T03:52:11;140081.69;;;7.34;63.87
788;BME280;16074;42.708;23.312;2023-02-22T03:54:40;140088.84;;;7.37;63.63
788;BME280;16074;42.708;23.312;2023-02-22T03:57:12;140104.50;;;7.43;63.47
788;BME280;16074;42.708;23.312;2023-02-22T03:59:43;140116.50;;;7.48;63.75
788;BME280;16074;42.708;23.312;2023-02-22T04:02:12;140120.06;;;7.50;62.91
788;BME280;16074;42.708;23.312;2023-02-22T04:04:45;140099.69;;;7.41;63.56
788;BME280;16074;42.708;23.312;2023-02-22T04:07:16;140104.50;;;7.43;63.52
788;BME280;16074;42.708;23.312;2023-02-22T04:09:45;140115.28;;;7.48;62.98
788;BME280;16074;42.708;23.312;2023-02-22T04:12:15;140126.09;;;7.52;62.55
788;BME280;16074;42.708;23.312;2023-02-22T04:14:53;140116.50;;;7.48;63.22
788;BME280;16074;42.708;23.312;2023-02-22T04:17:22;140118.91;;;7.49;62.89
788;BME280;16074;42.708;23.312;2023-02-22T04:19:50;140100.88;;;7.42;63.05
788;BME280;16074;42.708;23.312;2023-02-22T04:22:22;140092.47;;;7.38;62.44
788;BME280;16074;42.708;23.312;2023-02-22T04:24:51;140081.69;;;7.34;62.95
788;BME280;16074;42.708;23.312;2023-02-22T04:27:20;140078.06;;;7.32;63.08
788;BME280;16074;42.708;23.312;2023-02-22T04:29:48;140075.66;;;7.31;63.08
788;BME280;16074;42.708;23.312;2023-02-22T04:32:17;140055.28;;;7.23;62.80
788;BME280;16074;42.708;23.312;2023-02-22T04:34:45;140049.25;;;7.20;63.11
788;BME280;16074;42.708;23.312;2023-02-22T04:37:14;140046.84;;;7.19;63.02
788;BME280;16074;42.708;23.312;2023-02-22T04:39:44;140028.88;;;7.12;63.45
788;BME280;16074;42.708;23.312;2023-02-22T04:42:12;140015.69;;;7.07;63.32
788;BME280;16074;42.708;23.312;2023-02-22T04:44:40;139994.06;;;6.98;63.48
788;BME280;16074;42.708;23.312;2023-02-22T04:47:09;139988.06;;;6.95;63.44
788;BME280;16074;42.708;23.312;2023-02-22T04:49:37;139972.47;;;6.89;63.68
788;BME280;16074;42.708;23.312;2023-02-22T04:52:06;139978.44;;;6.91;63.64
788;BME280;16074;42.708;23.312;2023-02-22T04:54:37;139965.28;;;6.86;63.37
788;BME280;16074;42.708;23.312;2023-02-22T04:57:06;139962.88;;;6.85;63.76
788;BME280;16074;42.708;23.312;2023-02-22T04:59:35;139925.69;;;6.69;63.51
788;BME280;16074;42.708;23.312;2023-02-22T05:02:04;139893.28;;;6.56;64.26
788;BME280;16074;42.708;23.312;2023-02-22T05:04:32;139883.66;;;6.52;64.56
788;BME280;16074;42.708;23.312;2023-02-22T05:07:01;139892.09;;;6.55;64.89
788;BME280;16074;42.708;23.312;2023-02-22T05:09:30;139866.91;;;6.45;65.17
788;BME280;16074;42.708;23.312;2023-02-22T05:11:58;139860.91;;;6.42;65.10
788;BME280;16074;42.708;23.312;2023-02-22T05:14:28;139852.53;;;6.39;66.54
788;BME280;16074;42.708;23.312;2023-02-22T05:16:57;139835.72;;;6.32;65.48
788;BME280;16074;42.708;23.312;2023-02-22T05:19:25;139812.97;;;6.22;66.84
788;BME280;16074;42.708;23.312;2023-02-22T05:21:53;139816.53;;;6.24;67.04
788;BME280;16074;42.708;23.312;2023-02-22T05:24:22;139814.13;;;6.23;67.09
788;BME280;16074;42.708;23.312;2023-02-22T05:26:51;139824.91;;;6.27;67.31
788;BME280;16074;42.708;23.312;2023-02-22T05:29:19;139826.13;;;6.28;67.25
788;BME280;16074;42.708;23.312;2023-02-22T05:31:49;139844.09;;;6.35;67.02
788;BME280;16074;42.708;23.312;2023-02-22T05:34:17;139839.31;;;6.33;67.09
788;BME280;16074;42.708;23.312;2023-02-22T05:36:45;139830.94;;;6.30;67.26
788;BME280;16074;42.708;23.312;2023-02-22T05:39:13;139838.13;;;6.33;66.88
788;BME280;16074;42.708;23.312;2023-02-22T05:41:42;139847.72;;;6.37;67.20
788;BME280;16074;42.708;23.312;2023-02-22T05:44:10;139794.94;;;6.15;66.40
788;BME280;16074;42.708;23.312;2023-02-22T05:46:38;139743.41;;;5.93;67.71
788;BME280;16074;42.708;23.312;2023-02-22T05:49:08;139736.22;;;5.90;69.29
788;BME280;16074;42.708;23.312;2023-02-22T05:51:36;139726.63;;;5.87;69.26
788;BME280;16074;42.708;23.312;2023-02-22T05:54:04;139758.97;;;6.00;68.52
788;BME280;16074;42.708;23.312;2023-02-22T05:56:33;139696.63;;;5.74;69.03
788;BME280;16074;42.708;23.312;2023-02-22T05:59:02;139739.84;;;5.92;68.99
788;BME280;16074;42.708;23.312;2023-02-22T06:01:30;139718.25;;;5.83;69.71
788;BME280;16074;42.708;23.312;2023-02-22T06:03:59;139762.59;;;6.01;69.16
788;BME280;16074;42.708;23.312;2023-02-22T06:06:29;139744.63;;;5.94;69.39
788;BME280;16074;42.708;23.312;2023-02-22T06:08:57;139719.44;;;5.84;69.59
788;BME280;16074;42.708;23.312;2023-02-22T06:11:25;139738.59;;;5.91;70.32
788;BME280;16074;42.708;23.312;2023-02-22T06:13:53;139761.38;;;6.01;69.69
788;BME280;16074;42.708;23.312;2023-02-22T06:16:21;139774.59;;;6.06;69.38
788;BME280;16074;42.708;23.312;2023-02-22T06:18:50;139772.19;;;6.05;70.05
788;BME280;16074;42.708;23.312;2023-02-22T06:21:18;139787.75;;;6.12;69.75
788;BME280;16074;42.708;23.312;2023-02-22T06:23:49;139799.75;;;6.17;69.61
788;BME280;16074;42.708;23.312;2023-02-22T06:26:18;139835.72;;;6.32;69.28
788;BME280;16074;42.708;23.312;2023-02-22T06:28:46;139906.50;;;6.61;68.98
788;BME280;16074;42.708;23.312;2023-02-22T06:31:14;139952.03;;;6.80;68.22
788;BME280;16074;42.708;23.312;2023-02-22T06:33:43;140009.66;;;7.04;66.98
788;BME280;16074;42.708;23.312;2023-02-22T06:36:11;140084.09;;;7.35;65.22
788;BME280;16074;42.708;23.312;2023-02-22T06:38:40;140147.72;;;7.61;64.28
788;BME280;16074;42.708;23.312;2023-02-22T06:41:10;140214.94;;;7.89;63.34
788;BME280;16074;42.708;23.312;2023-02-22T06:43:38;140281.06;;;8.17;62.78
788;BME280;16074;42.708;23.312;2023-02-22T06:46:09;140329.13;;;8.36;61.85
788;BME280;16074;42.708;23.312;2023-02-22T06:48:38;140408.44;;;8.69;61.01
788;BME280;16074;42.708;23.312;2023-02-22T06:51:06;140454.13;;;8.88;58.27
788;BME280;16074;42.708;23.312;2023-02-22T06:53:35;140478.16;;;8.98;57.41
788;BME280;16074;42.708;23.312;2023-02-22T06:56:04;140543.06;;;9.25;57.04
788;BME280;16074;42.708;23.312;2023-02-22T06:58:34;140663.34;;;9.75;55.77
788;BME280;16074;42.708;23.312;2023-02-22T07:01:02;140734.41;;;10.04;55.15
788;BME280;16074;42.708;23.312;2023-02-22T07:03:34;140871.63;;;10.61;53.26
788;BME280;16074;42.708;23.312;2023-02-22T07:06:03;140954.75;;;10.95;51.89
788;BME280;16074;42.708;23.312;2023-02-22T07:08:32;141060.75;;;11.39;51.15
788;BME280;16074;42.708;23.312;2023-02-22T07:11:00;141100.59;;;11.56;49.58
788;BME280;16074;42.708;23.312;2023-02-22T07:13:28;141163.25;;;11.82;49.28
788;BME280;16074;42.708;23.312;2023-02-22T07:15:58;141140.38;;;11.72;48.60
788;BME280;16074;42.708;23.312;2023-02-22T07:18:27;141203.03;;;11.98;47.94
788;BME280;16074;42.708;23.312;2023-02-22T07:20:56;141304.38;;;12.40;46.83
788;BME280;16074;42.708;23.312;2023-02-22T07:23:25;141417.75;;;12.87;46.66
788;BME280;16074;42.708;23.312;2023-02-22T07:25:54;141490.19;;;13.16;45.51
788;BME280;16074;42.708;23.312;2023-02-22T07:28:22;141574.72;;;13.51;44.86
788;BME280;16074;42.708;23.312;2023-02-22T07:30:50;141678.56;;;13.94;42.86
788;BME280;16074;42.708;23.312;2023-02-22T07:33:20;141748.66;;;14.23;41.98
788;BME280;16074;42.708;23.312;2023-02-22T07:35:49;141822.38;;;14.53;41.61
788;BME280;16074;42.708;23.312;2023-02-22T07:38:18;141904.59;;;14.87;40.80
788;BME280;16074;42.708;23.312;2023-02-22T07:40:46;141945.66;;;15.04;40.47
788;BME280;16074;42.708;23.312;2023-02-22T07:43:16;142009.78;;;15.31;39.12
788;BME280;16074;42.708;23.312;2023-02-22T07:45:46;142076.31;;;15.58;39.31
788;BME280;16074;42.708;23.312;2023-02-22T07:48:15;142038.81;;;15.43;39.58
788;BME280;16074;42.708;23.312;2023-02-22T07:50:46;142104.16;;;15.69;39.00
788;BME280;16074;42.708;23.312;2023-02-22T07:53:18;142118.69;;;15.75;38.59
788;BME280;16074;42.708;23.312;2023-02-22T07:55:46;142140.47;;;15.84;38.46
788;BME280;16074;42.708;23.312;2023-02-22T07:58:18;142244.53;;;16.27;38.51
788;BME280;16074;42.708;23.312;2023-02-22T08:00:47;142280.91;;;16.42;38.29
788;BME280;16074;42.708;23.312;2023-02-22T08:03:17;142380.19;;;16.83;37.42
788;BME280;16074;42.708;23.312;2023-02-22T08:05:48;142411.69;;;16.96;36.32
788;BME280;16074;42.708;23.312;2023-02-22T08:08:17;142477.06;;;17.23;36.22
788;BME280;16074;42.708;23.312;2023-02-22T08:10:46;142462.53;;;17.17;35.79
788;BME280;16074;42.708;23.312;2023-02-22T08:13:15;142546.19;;;17.51;35.35
788;BME280;16074;42.708;23.312;2023-02-22T08:15:44;142587.41;;;17.68;35.25
788;BME280;16074;42.708;23.312;2023-02-22T08:18:16;142610.41;;;17.78;35.52
788;BME280;16074;42.708;23.312;2023-02-22T08:20:48;142678.31;;;18.05;34.81
788;BME280;16074;42.708;23.312;2023-02-22T08:23:19;142629.81;;;17.86;34.53
788;BME280;16074;42.708;23.312;2023-02-22T08:25:48;142732.91;;;18.28;35.03
788;BME280;16074;42.708;23.312;2023-02-22T08:28:19;142819.03;;;18.63;33.72
788;BME280;16074;42.708;23.312;2023-02-22T08:30:49;142778.97;;;18.47;33.81
788;BME280;16074;42.708;23.312;2023-02-22T08:33:18;142747.47;;;18.34;34.05
788;BME280;16074;42.708;23.312;2023-02-22T08:35:48;142828.75;;;18.67;34.13
788;BME280;16074;42.708;23.312;2023-02-22T08:38:19;142878.47;;;18.88;33.96
788;BME280;16074;42.708;23.312;2023-02-22T08:40:48;142886.94;;;18.91;33.94
788;BME280;16074;42.708;23.312;2023-02-22T08:43:17;142934.25;;;19.11;34.21
788;BME280;16074;42.708;23.312;2023-02-22T08:45:46;142919.69;;;19.05;33.51
788;BME280;16074;42.708;23.312;2023-02-22T08:48:15;142999.84;;;19.37;33.26
788;BME280;16074;42.708;23.312;2023-02-22T08:50:43;142984.03;;;19.31;32.82
788;BME280;16074;42.708;23.312;2023-02-22T08:53:15;143045.94;;;19.56;32.57
788;BME280;16074;42.708;23.312;2023-02-22T08:55:44;143166.22;;;20.06;32.14
788;BME280;16074;42.708;23.312;2023-02-22T08:58:12;143264.59;;;20.46;31.94
788;BME280;16074;42.708;23.312;2023-02-22T09:00:41;143348.50;;;20.80;31.47
788;BME280;16074;42.708;23.312;2023-02-22T09:03:12;143330.19;;;20.73;31.53
788;BME280;16074;42.708;23.312;2023-02-22T09:05:41;143461.50;;;21.27;31.34
788;BME280;16074;42.708;23.312;2023-02-22T09:08:10;143459.06;;;21.26;31.11
788;BME280;16074;42.708;23.312;2023-02-22T09:10:40;143465.16;;;21.28;31.29
788;BME280;16074;42.708;23.312;2023-02-22T09:13:08;143495.56;;;21.41;31.45
788;BME280;16074;42.708;23.312;2023-02-22T09:15:37;143478.53;;;21.34;31.27
788;BME280;16074;42.708;23.312;2023-02-22T09:18:08;143523.56;;;21.52;31.48
788;BME280;16074;42.708;23.312;2023-02-22T09:20:36;143569.78;;;21.71;31.01
788;BME280;16074;42.708;23.312;2023-02-22T09:23:06;143506.53;;;21.45;31.15
788;BME280;16074;42.708;23.312;2023-02-22T09:25:36;143375.25;;;20.91;31.80
788;BME280;16074;42.708;23.312;2023-02-22T09:28:08;143429.94;;;21.14;32.14
788;BME280;16074;42.708;23.312;2023-02-22T09:30:37;143521.13;;;21.51;31.56
788;BME280;16074;42.708;23.312;2023-02-22T09:33:07;143561.28;;;21.68;30.98
788;BME280;16074;42.708;23.312;2023-02-22T09:35:37;143442.09;;;21.19;31.64
788;BME280;16074;42.708;23.312;2023-02-22T09:38:09;143355.78;;;20.83;31.98
788;BME280;16074;42.708;23.312;2023-02-22T09:40:40;143445.72;;;21.20;31.62
788;BME280;16074;42.708;23.312;2023-02-22T09:43:23;143507.72;;;21.46;31.52
788;BME280;16074;42.708;23.312;2023-02-22T09:46:04;143540.59;;;21.59;31.38
788;BME280;16074;42.708;23.312;2023-02-22T09:48:49;143598.97;;;21.83;30.88
788;BME280;16074;42.708;23.312;2023-02-22T09:51:19;143488.25;;;21.38;31.25
788;BME280;16074;42.708;23.312;2023-02-22T09:53:57;143595.31;;;21.81;30.78
788;BME280;16074;42.708;23.312;2023-02-22T09:56:26;143577.06;;;21.74;31.29
788;BME280;16074;42.708;23.312;2023-02-22T09:59:00;143555.19;;;21.65;31.07
788;BME280;16074;42.708;23.312;2023-02-22T10:01:32;143560.03;;;21.67;31.25
788;BME280;16074;42.708;23.312;2023-02-22T10:04:06;143581.94;;;21.76;30.81
788;BME280;16074;42.708;23.312;2023-02-22T10:06:38;143665.88;;;22.10;31.42
788;BME280;16074;42.708;23.312;2023-02-22T10:09:10;143727.97;;;22.36;31.26
788;BME280;16074;42.708;23.312;2023-02-22T10:11:51;143782.72;;;22.58;30.36
788;BME280;16074;42.708;23.312;2023-02-22T10:14:34;143882.53;;;22.99;30.15
788;BME280;16074;42.708;23.312;2023-02-22T10:17:15;143969.03;;;23.34;29.44
788;BME280;16074;42.708;23.312;2023-02-22T10:19:58;144018.94;;;23.55;28.83
788;BME280;16074;42.708;23.312;2023-02-22T10:22:43;144027.50;;;23.58;28.71
788;BME280;16074;42.708;23.312;2023-02-22T10:25:16;144073.81;;;23.77;28.50
788;BME280;16074;42.708;23.312;2023-02-22T10:27:51;143926.41;;;23.17;28.62
788;BME280;16074;42.708;23.312;2023-02-22T10:30:26;143928.84;;;23.18;29.43
788;BME280;16074;42.708;23.312;2023-02-22T10:33:04;143981.22;;;23.39;29.87
788;BME280;16074;42.708;23.312;2023-02-22T10:35:37;144051.88;;;23.68;28.84
788;BME280;16074;42.708;23.312;2023-02-22T10:38:13;144097.00;;;23.87;27.93
788;BME280;16074;42.708;23.312;2023-02-22T10:40:47;144109.19;;;23.92;28.29
788;BME280;16074;42.708;23.312;2023-02-22T10:43:17;144043.31;;;23.65;28.37
788;BME280;16074;42.708;23.312;2023-02-22T10:45:47;144006.81;;;23.50;28.24
788;BME280;16074;42.708;23.312;2023-02-22T10:48:18;143849.66;;;22.86;28.52
788;BME280;16074;42.708;23.312;2023-02-22T10:50:47;143837.50;;;22.81;29.12
788;BME280;16074;42.708;23.312;2023-02-22T10:53:16;143758.38;;;22.48;28.97
788;BME280;16074;42.708;23.312;2023-02-22T10:56:07;143803.41;;;22.67;29.80
788;BME280;16074;42.708;23.312;2023-02-22T10:58:49;143821.69;;;22.74;29.00
788;BME280;16074;42.708;23.312;2023-02-22T11:01:26;143860.66;;;22.90;29.02
788;BME280;16074;42.708;23.312;2023-02-22T11:03:57;143821.69;;;22.74;28.93
788;BME280;16074;42.708;23.312;2023-02-22T11:06:26;143914.25;;;23.12;28.92
788;BME280;16074;42.708;23.312;2023-02-22T11:09:04;143986.09;;;23.41;29.03
788;BME280;16074;42.708;23.312;2023-02-22T11:11:38;144050.63;;;23.68;28.18
788;BME280;16074;42.708;23.312;2023-02-22T11:14:07;144089.69;;;23.84;28.02
788;BME280;16074;42.708;23.312;2023-02-22T11:16:41;144179.81;;;24.20;27.53
788;BME280;16074;42.708;23.312;2023-02-22T11:19:18;144250.59;;;24.49;27.74
788;BME280;16074;42.708;23.312;2023-02-22T11:21:51;144339.59;;;24.86;26.94
788;BME280;16074;42.708;23.312;2023-02-22T11:24:22;144363.94;;;24.96;27.20
788;BME280;16074;42.708;23.312;2023-02-22T11:27:00;144439.63;;;25.27;26.36
788;BME280;16074;42.708;23.312;2023-02-22T11:29:33;144517.66;;;25.58;26.29
788;BME280;16074;42.708;23.312;2023-02-22T11:32:12;144551.84;;;25.72;25.66
788;BME280;16074;42.708;23.312;2023-02-22T11:34:41;144612.91;;;25.97;25.33
788;BME280;16074;42.708;23.312;2023-02-22T11:37:26;144662.97;;;26.18;24.67
788;BME280;16074;42.708;23.312;2023-02-22T11:40:06;144609.22;;;25.96;24.89
788;BME280;16074;42.708;23.312;2023-02-22T11:42:39;144599.47;;;25.92;24.79
788;BME280;16074;42.708;23.312;2023-02-22T11:45:11;144266.41;;;24.56;25.69
788;BME280;16074;42.708;23.312;2023-02-22T11:47:53;144237.09;;;24.44;26.09
788;BME280;16074;42.708;23.312;2023-02-22T11:50:29;144281.03;;;24.62;25.61
788;BME280;16074;42.708;23.312;2023-02-22T11:53:20;144320.06;;;24.78;26.43
788;BME280;16074;42.708;23.312;2023-02-22T11:56:06;144031.13;;;23.60;27.20
788;BME280;16074;42.708;23.312;2023-02-22T11:58:43;143763.25;;;22.50;27.89
788;BME280;16074;42.708;23.312;2023-02-22T12:01:20;143819.25;;;22.73;28.40
788;BME280;16074;42.708;23.312;2023-02-22T12:06:54;144043.31;;;23.65;27.09
788;BME280;16074;42.708;23.312;2023-02-22T12:09:32;144068.94;;;23.75;26.61
788;BME280;16074;42.708;23.312;2023-02-22T12:12:09;144136.00;;;24.03;26.12
788;BME280;16074;42.708;23.312;2023-02-22T12:14:51;144203.00;;;24.30;25.99
788;BME280;16074;42.708;23.312;2023-02-22T12:17:42;144259.09;;;24.53;25.49
788;BME280;16074;42.708;23.312;2023-02-22T12:20:30;144251.78;;;24.50;25.38
788;BME280;16074;42.708;23.312;2023-02-22T12:23:11;144266.41;;;24.56;25.84
788;BME280;16074;42.708;23.312;2023-02-22T12:25:49;144318.81;;;24.77;25.08
788;BME280;16074;42.708;23.312;2023-02-22T12:28:31;144190.81;;;24.25;25.44
788;BME280;16074;42.708;23.312;2023-02-22T12:31:14;144237.09;;;24.44;25.57
788;BME280;16074;42.708;23.312;2023-02-22T12:33:50;144250.59;;;24.49;25.77
788;BME280;16074;42.708;23.312;2023-02-22T12:36:27;144116.50;;;23.95;26.05
788;BME280;16074;42.708;23.312;2023-02-22T12:39:02;144125.00;;;23.98;25.56
788;BME280;16074;42.708;23.312;2023-02-22T12:41:38;144146.94;;;24.07;25.95
788;BME280;16074;42.708;23.312;2023-02-22T12:44:15;144206.66;;;24.31;25.13
788;BME280;16074;42.708;23.312;2023-02-22T12:46:48;144004.38;;;23.49;26.08
788;BME280;16074;42.708;23.312;2023-02-22T12:49:25;143928.84;;;23.18;26.18
788;BME280;16074;42.708;23.312;2023-02-22T12:52:02;143930.09;;;23.18;26.47
788;BME280;16074;42.708;23.312;2023-02-22T12:54:50;144082.38;;;23.81;26.21
788;BME280;16074;42.708;23.312;2023-02-22T12:57:29;144115.25;;;23.94;26.30
788;BME280;16074;42.708;23.312;2023-02-22T13:00:06;144185.94;;;24.23;26.09
788;BME280;16074;42.708;23.312;2023-02-22T13:02:44;144195.69;;;24.27;25.34
788;BME280;16074;42.708;23.312;2023-02-22T13:05:17;144086.00;;;23.82;25.27
788;BME280;16074;42.708;23.312;2023-02-22T13:07:56;143960.53;;;23.31;25.56
788;BME280;16074;42.708;23.312;2023-02-22T13:10:41;144029.94;;;23.59;26.04
788;BME280;16074;42.708;23.312;2023-02-22T13:13:20;144122.56;;;23.97;25.62
788;BME280;16074;42.708;23.312;2023-02-22T13:15:55;144121.38;;;23.97;25.27
788;BME280;16074;42.708;23.312;2023-02-22T13:18:30;143982.44;;;23.40;26.37
788;BME280;16074;42.708;23.312;2023-02-22T13:21:04;144112.81;;;23.93;26.03
788;BME280;16074;42.708;23.312;2023-02-22T13:23:44;144159.13;;;24.12;25.51
788;BME280;16074;42.708;23.312;2023-02-22T13:26:18;144206.66;;;24.31;25.19
788;BME280;16074;42.708;23.312;2023-02-22T13:28:54;144267.66;;;24.56;24.78
788;BME280;16074;42.708;23.312;2023-02-22T13:31:39;144342.03;;;24.87;25.05
788;BME280;16074;42.708;23.312;2023-02-22T13:34:23;144367.63;;;24.97;24.47
788;BME280;16074;42.708;23.312;2023-02-22T13:37:13;144405.41;;;25.13;24.20